Time;durP1;ratioP1;P1;durP2;ratioP2;P2;SDS_P1;SDS_P2;PMS_P1;PMS_P2;Temp;Humidity;BMP_temperature;BMP_pressure;BME280_temperature;BME280_humidity;BME280_pressure;Samples;Min_cycle;Max_cycle;Signal;HPM_P1;HPM_P2
2024/01/25 00:01:11;;;;;;;56.40;7.03;;;7.10;99.90;;;;;;4938637;29;20047;-75
2024/01/25 00:03:37;;;;;;;41.60;5.97;;;7.10;99.90;;;;;;4956850;28;20119;-74
2024/01/25 00:06:04;;;;;;;51.80;7.32;;;7.10;99.90;;;;;;4953433;28;20032;-74
2024/01/25 00:08:29;;;;;;;50.53;7.93;;;7.10;99.90;;;;;;4955910;28;20055;-74
2024/01/25 00:10:55;;;;;;;54.10;7.28;;;7.10;99.90;;;;;;4938816;28;20023;-74
2024/01/25 00:13:20;;;;;;;46.78;6.13;;;7.10;99.90;;;;;;4955223;28;20078;-73
2024/01/25 00:15:46;;;;;;;44.55;6.03;;;7.10;99.90;;;;;;4956167;28;20465;-75
2024/01/25 00:18:11;;;;;;;38.92;6.00;;;7.10;99.90;;;;;;4955489;28;20035;-72
2024/01/25 00:20:37;;;;;;;46.50;6.38;;;7.10;99.90;;;;;;4955668;28;20549;-74
2024/01/25 00:23:03;;;;;;;46.65;5.85;;;7.10;99.90;;;;;;4956070;28;20024;-78
2024/01/25 00:25:28;;;;;;;48.35;6.82;;;7.10;99.90;;;;;;4939055;29;20032;-76
2024/01/25 00:27:54;;;;;;;41.78;6.68;;;7.10;99.90;;;;;;4954371;28;20110;-75
2024/01/25 00:30:20;;;;;;;49.55;7.30;;;7.10;99.90;;;;;;4955858;28;20102;-75
2024/01/25 00:32:45;;;;;;;54.83;7.07;;;7.10;99.90;;;;;;4956025;28;20043;-71
2024/01/25 00:35:13;;;;;;;46.25;7.00;;;7.10;99.90;;;;;;4955618;28;21360;-72
2024/01/25 00:37:40;;;;;;;44.58;7.10;;;7.10;99.90;;;;;;4938479;29;20528;-71
2024/01/25 00:40:06;;;;;;;40.33;5.90;;;7.10;99.90;;;;;;4955580;28;20028;-71
2024/01/25 00:42:43;;;;;;;46.05;6.45;;;7.20;99.90;;;;;;4954395;29;20039;-71
2024/01/25 00:45:09;;;;;;;43.33;7.57;;;7.10;99.90;;;;;;4955668;28;20023;-71
2024/01/25 00:47:35;;;;;;;47.55;6.90;;;7.10;99.90;;;;;;4956669;28;20035;-74
2024/01/25 00:50:01;;;;;;;49.90;7.18;;;7.10;99.90;;;;;;4955438;29;20524;-72
2024/01/25 00:52:27;;;;;;;42.08;6.38;;;7.10;99.90;;;;;;4938204;28;20058;-74
2024/01/25 00:54:53;;;;;;;45.35;7.15;;;7.10;99.90;;;;;;4954950;28;20481;-73
2024/01/25 00:57:19;;;;;;;55.78;7.32;;;7.10;99.90;;;;;;4938088;29;20059;-73
2024/01/25 00:59:48;;;;;;;51.65;5.97;;;7.00;99.90;;;;;;4937750;29;20027;-72
2024/01/25 01:02:14;;;;;;;48.67;6.03;;;7.00;99.90;;;;;;4953436;28;20082;-72
2024/01/25 01:04:40;;;;;;;57.55;7.43;;;7.00;99.90;;;;;;4955436;28;21507;-74
2024/01/25 01:07:07;;;;;;;56.00;6.75;;;7.00;99.90;;;;;;4954580;28;20036;-75
2024/01/25 01:09:33;;;;;;;57.22;6.97;;;7.00;99.90;;;;;;4953677;28;20037;-73
2024/01/25 01:11:59;;;;;;;52.22;6.38;;;6.90;99.90;;;;;;4955422;29;20051;-74
2024/01/25 01:14:24;;;;;;;51.08;6.90;;;7.00;99.90;;;;;;4954730;29;20127;-75
2024/01/25 01:16:50;;;;;;;48.90;6.90;;;6.90;99.90;;;;;;4952763;28;20031;-73
2024/01/25 01:19:16;;;;;;;52.40;7.32;;;6.90;99.90;;;;;;4937815;29;20051;-73
2024/01/25 01:21:43;;;;;;;64.18;8.55;;;6.90;99.90;;;;;;4954306;28;20039;-75
2024/01/25 01:24:11;;;;;;;46.08;7.05;;;6.90;99.90;;;;;;4937522;29;20030;-76
2024/01/25 01:26:37;;;;;;;45.75;5.93;;;6.80;99.90;;;;;;4954396;28;20050;-72
2024/01/25 01:29:02;;;;;;;49.08;6.35;;;6.80;99.90;;;;;;4953921;28;20019;-74
2024/01/25 01:31:28;;;;;;;57.72;7.70;;;6.80;99.90;;;;;;4952955;28;20038;-76
2024/01/25 01:33:53;;;;;;;51.47;6.63;;;6.80;99.90;;;;;;4954694;29;20139;-75
2024/01/25 01:36:22;;;;;;;49.28;6.63;;;6.80;99.90;;;;;;4936552;28;20054;-74
2024/01/25 01:38:48;;;;;;;51.50;7.50;;;6.80;99.90;;;;;;4954379;28;20044;-74
2024/01/25 01:41:13;;;;;;;53.45;7.82;;;6.80;99.90;;;;;;4937513;28;20024;-76
2024/01/25 01:43:39;;;;;;;49.15;6.47;;;6.80;99.90;;;;;;4954011;28;20106;-70
2024/01/25 01:46:11;;;;;;;53.30;7.05;;;6.80;99.90;;;;;;4954461;29;20024;-72
2024/01/25 01:48:40;;;;;;;52.53;7.35;;;6.80;99.90;;;;;;4937625;28;20024;-72
2024/01/25 01:51:06;;;;;;;48.47;6.00;;;6.80;99.90;;;;;;4953362;28;20080;-73
2024/01/25 01:53:33;;;;;;;53.92;6.30;;;6.80;99.90;;;;;;4954501;29;20040;-73
2024/01/25 01:55:59;;;;;;;54.22;6.47;;;6.80;99.90;;;;;;4954344;28;20038;-73
2024/01/25 01:58:26;;;;;;;55.35;6.65;;;6.80;99.90;;;;;;4954481;28;20027;-72
2024/01/25 02:00:53;;;;;;;51.85;7.10;;;6.70;99.90;;;;;;4937123;29;20031;-70
2024/01/25 02:03:19;;;;;;;59.35;6.72;;;6.70;99.90;;;;;;4936868;28;20055;-72
2024/01/25 02:05:45;;;;;;;49.83;6.47;;;6.70;99.90;;;;;;4954074;28;20024;-72
2024/01/25 02:08:11;;;;;;;51.20;6.55;;;6.70;99.90;;;;;;4936579;29;20124;-75
2024/01/25 02:10:36;;;;;;;52.53;6.60;;;6.70;99.90;;;;;;4953910;28;20032;-71
2024/01/25 02:13:02;;;;;;;57.88;7.47;;;6.70;99.90;;;;;;4936850;29;20074;-72
2024/01/25 02:15:27;;;;;;;61.33;7.38;;;6.70;99.90;;;;;;4937136;29;20028;-73
2024/01/25 02:17:53;;;;;;;48.53;6.50;;;6.70;99.90;;;;;;4936581;28;20056;-73
2024/01/25 02:20:19;;;;;;;54.22;6.72;;;6.70;99.90;;;;;;4954353;28;20038;-71
2024/01/25 02:22:44;;;;;;;50.88;7.20;;;6.70;99.90;;;;;;4954171;28;20023;-72
2024/01/25 02:25:10;;;;;;;48.70;6.68;;;6.70;99.90;;;;;;4935712;29;20042;-74
2024/01/25 02:27:38;;;;;;;64.47;6.88;;;6.60;99.90;;;;;;4954281;28;20485;-75
2024/01/25 02:30:05;;;;;;;61.80;7.40;;;6.60;99.90;;;;;;4952524;28;20035;-75
2024/01/25 02:32:31;;;;;;;44.35;6.03;;;6.60;99.90;;;;;;4953089;28;20137;-75
2024/01/25 02:34:56;;;;;;;54.72;6.25;;;6.70;99.90;;;;;;4952766;28;20083;-75
2024/01/25 02:37:22;;;;;;;59.10;8.13;;;6.70;99.90;;;;;;4936376;29;20034;-74
2024/01/25 02:39:48;;;;;;;56.80;7.15;;;6.60;99.90;;;;;;4951926;28;20032;-73
2024/01/25 02:42:14;;;;;;;48.00;6.18;;;6.60;99.90;;;;;;4956846;29;20051;-73
2024/01/25 02:44:39;;;;;;;58.90;7.57;;;6.60;99.90;;;;;;4957330;28;20027;-73
2024/01/25 02:47:05;;;;;;;56.38;7.05;;;6.60;99.90;;;;;;4940164;29;20063;-75
2024/01/25 02:49:31;;;;;;;44.85;6.32;;;6.60;99.90;;;;;;4957739;28;20028;-75
2024/01/25 02:51:56;;;;;;;53.55;6.60;;;6.50;99.90;;;;;;4957289;28;20031;-74
2024/01/25 02:54:22;;;;;;;55.00;7.38;;;6.50;99.90;;;;;;4939077;28;20079;-74
2024/01/25 02:56:47;;;;;;;55.30;7.50;;;6.50;99.90;;;;;;4940388;29;20026;-73
2024/01/25 02:59:13;;;;;;;69.25;7.03;;;6.40;99.90;;;;;;4938581;29;20030;-74
2024/01/25 03:01:46;;;;;;;41.03;5.75;;;6.50;99.90;;;;;;4957432;28;20031;-75
2024/01/25 03:04:11;;;;;;;48.90;7.15;;;6.50;99.90;;;;;;4957005;28;20020;-75
2024/01/25 03:06:37;;;;;;;48.65;5.90;;;6.40;99.90;;;;;;4939643;29;20083;-74
2024/01/25 03:09:06;;;;;;;54.30;7.05;;;6.40;99.90;;;;;;4957307;29;20044;-73
2024/01/25 03:11:31;;;;;;;48.60;7.13;;;6.40;99.90;;;;;;4939783;29;20027;-74
2024/01/25 03:13:57;;;;;;;62.17;6.55;;;6.30;99.90;;;;;;4957034;28;20123;-74
2024/01/25 03:16:23;;;;;;;70.20;7.22;;;6.30;99.90;;;;;;4955338;28;20027;-72
2024/01/25 03:18:48;;;;;;;61.88;7.03;;;6.30;99.90;;;;;;4956701;28;20503;-76
2024/01/25 03:21:14;;;;;;;39.10;6.50;;;6.30;99.90;;;;;;4955973;28;20035;-76
2024/01/25 03:23:40;;;;;;;57.85;6.43;;;6.30;99.90;;;;;;4938754;29;20023;-74
2024/01/25 03:26:05;;;;;;;57.78;7.20;;;6.30;99.90;;;;;;4939496;29;20400;-74
2024/01/25 03:28:33;;;;;;;61.13;7.20;;;6.30;99.90;;;;;;4956811;29;20042;-73
2024/01/25 03:30:58;;;;;;;55.80;7.85;;;6.30;99.90;;;;;;4956878;28;20031;-73
2024/01/25 03:33:25;;;;;;;60.58;6.63;;;6.30;99.90;;;;;;4956276;28;20468;-73
2024/01/25 03:35:51;;;;;;;49.00;6.50;;;6.30;99.90;;;;;;4939445;29;20139;-74
2024/01/25 03:38:17;;;;;;;51.67;7.78;;;6.30;99.90;;;;;;4956526;28;20110;-73
2024/01/25 03:40:42;;;;;;;52.22;5.65;;;6.30;99.90;;;;;;4956186;28;20536;-74
2024/01/25 03:43:08;;;;;;;53.83;6.57;;;6.30;99.90;;;;;;4939117;29;20028;-74
2024/01/25 03:45:34;;;;;;;57.78;6.60;;;6.30;99.90;;;;;;4939551;29;20506;-72
2024/01/25 03:47:59;;;;;;;42.40;6.25;;;6.30;99.90;;;;;;4956264;28;20118;-73
2024/01/25 03:50:26;;;;;;;47.78;7.05;;;6.20;99.90;;;;;;4939437;29;20028;-74
2024/01/25 03:52:52;;;;;;;57.13;7.18;;;6.20;99.90;;;;;;4937316;28;20046;-73
2024/01/25 03:55:17;;;;;;;61.28;6.70;;;6.20;99.90;;;;;;4956090;28;20019;-73
2024/01/25 03:57:44;;;;;;;60.63;6.60;;;6.30;99.90;;;;;;4939154;29;20038;-72
2024/01/25 04:00:11;;;;;;;52.28;6.78;;;6.20;99.90;;;;;;4955862;28;20020;-73
2024/01/25 04:02:36;;;;;;;56.63;6.78;;;6.20;99.90;;;;;;4956076;29;20055;-75
2024/01/25 04:05:02;;;;;;;61.95;6.85;;;6.20;99.90;;;;;;4954871;28;20023;-71
2024/01/25 04:07:28;;;;;;;57.33;8.35;;;6.20;99.90;;;;;;4937325;29;20047;-73
2024/01/25 04:09:54;;;;;;;50.50;6.95;;;6.20;99.90;;;;;;4954904;28;20030;-72
2024/01/25 04:12:19;;;;;;;47.13;6.35;;;6.20;99.90;;;;;;4955714;28;20047;-74
2024/01/25 04:14:45;;;;;;;63.33;7.00;;;6.20;99.90;;;;;;4955824;28;20020;-74
2024/01/25 04:17:11;;;;;;;52.88;7.00;;;6.20;99.90;;;;;;4938038;29;20501;-73
2024/01/25 04:19:39;;;;;;;44.83;6.65;;;6.20;99.90;;;;;;4955805;28;20030;-73
2024/01/25 04:22:05;;;;;;;60.45;7.03;;;6.30;99.90;;;;;;4955233;28;20035;-74
2024/01/25 04:24:31;;;;;;;61.05;7.25;;;6.20;99.90;;;;;;4956279;28;20086;-74
2024/01/25 04:26:56;;;;;;;49.65;6.45;;;6.30;99.90;;;;;;4938429;29;20027;-74
2024/01/25 04:29:22;;;;;;;63.85;7.18;;;6.30;99.90;;;;;;4938321;29;20055;-76
2024/01/25 04:31:48;;;;;;;52.35;7.07;;;6.30;99.90;;;;;;4938555;29;20050;-73
2024/01/25 04:34:14;;;;;;;67.15;6.93;;;6.30;99.90;;;;;;4955104;28;20056;-75
2024/01/25 04:36:40;;;;;;;51.88;7.47;;;6.30;99.90;;;;;;4938510;29;20033;-74
2024/01/25 04:39:06;;;;;;;50.35;6.10;;;6.40;99.90;;;;;;4955540;28;20027;-74
2024/01/25 04:41:31;;;;;;;53.63;7.32;;;6.40;99.90;;;;;;4938400;29;20083;-76
2024/01/25 04:43:57;;;;;;;60.45;7.13;;;6.40;99.90;;;;;;4955179;29;20031;-73
2024/01/25 04:46:22;;;;;;;54.95;7.60;;;6.30;99.90;;;;;;4955515;28;20083;-72
2024/01/25 04:48:48;;;;;;;68.22;7.60;;;6.30;99.90;;;;;;4938016;28;20023;-74
2024/01/25 04:51:17;;;;;;;62.03;6.93;;;6.30;99.90;;;;;;4955317;28;20027;-74
2024/01/25 04:53:43;;;;;;;47.60;6.78;;;6.40;99.90;;;;;;4937761;29;20043;-74
2024/01/25 04:56:09;;;;;;;59.67;7.30;;;6.40;99.90;;;;;;4953801;29;20027;-76
2024/01/25 04:58:35;;;;;;;58.80;6.38;;;6.40;99.90;;;;;;4937515;29;20041;-75
2024/01/25 05:01:01;;;;;;;44.45;6.45;;;6.30;99.90;;;;;;4936916;29;20114;-74
2024/01/25 05:03:26;;;;;;;50.90;6.43;;;6.30;99.90;;;;;;4954608;28;20047;-73
2024/01/25 05:05:52;;;;;;;57.08;7.65;;;6.30;99.90;;;;;;4937830;29;20043;-75
2024/01/25 05:08:17;;;;;;;59.08;6.32;;;6.30;99.90;;;;;;4937370;29;20052;-74
2024/01/25 05:10:43;;;;;;;55.30;6.78;;;6.20;99.90;;;;;;4954682;29;20024;-73
2024/01/25 05:13:09;;;;;;;62.42;6.80;;;6.20;99.90;;;;;;4955029;28;20047;-73
2024/01/25 05:15:35;;;;;;;58.50;7.30;;;6.20;99.90;;;;;;4954913;28;20027;-75
2024/01/25 05:18:02;;;;;;;54.67;7.43;;;6.40;99.90;;;;;;4937532;29;20034;-75
2024/01/25 05:20:34;;;;;;;53.25;6.35;;;6.20;99.90;;;;;;4953550;28;20028;-73
2024/01/25 05:23:01;;;;;;;53.55;6.50;;;6.20;99.90;;;;;;4954951;28;20046;-75
2024/01/25 05:25:27;;;;;;;57.53;6.38;;;6.20;99.90;;;;;;4937351;28;20051;-76
2024/01/25 05:27:54;;;;;;;62.00;6.95;;;6.10;99.90;;;;;;4954627;28;20023;-76
2024/01/25 05:30:19;;;;;;;52.17;6.65;;;6.20;99.90;;;;;;4935675;29;20106;-76
2024/01/25 05:32:46;;;;;;;62.63;8.32;;;6.20;99.90;;;;;;4935476;28;20067;-73
2024/01/25 05:35:11;;;;;;;61.30;6.53;;;6.20;99.90;;;;;;4935875;28;20030;-75
2024/01/25 05:37:37;;;;;;;52.05;6.10;;;6.20;99.90;;;;;;4954668;28;20428;-76
2024/01/25 05:40:03;;;;;;;60.70;6.18;;;6.30;99.90;;;;;;4952919;29;20160;-77
2024/01/25 05:42:29;;;;;;;48.13;6.10;;;6.30;99.90;;;;;;4935847;29;20027;-77
2024/01/25 05:44:54;;;;;;;54.55;6.70;;;6.30;99.90;;;;;;4950638;28;20095;-74
2024/01/25 05:47:20;;;;;;;50.58;6.40;;;6.30;99.90;;;;;;4953324;29;20032;-75
2024/01/25 05:49:46;;;;;;;60.67;6.65;;;6.30;99.90;;;;;;4951085;28;20051;-73
2024/01/25 05:52:11;;;;;;;42.55;5.70;;;6.30;99.90;;;;;;4954121;28;20039;-76
2024/01/25 05:54:37;;;;;;;56.08;6.97;;;6.30;99.90;;;;;;4953221;29;20028;-78
2024/01/25 05:57:04;;;;;;;52.35;6.75;;;6.30;99.90;;;;;;4954487;28;20024;-79
2024/01/25 05:59:30;;;;;;;51.08;6.03;;;6.30;99.90;;;;;;4934825;28;20096;-76
2024/01/25 06:01:55;;;;;;;43.42;5.80;;;6.30;99.90;;;;;;4951831;28;20395;-75
2024/01/25 06:04:21;;;;;;;63.47;6.75;;;6.30;99.90;;;;;;4953216;28;20062;-77
2024/01/25 06:06:47;;;;;;;55.30;7.18;;;6.30;99.90;;;;;;4936794;28;20032;-76
2024/01/25 06:09:14;;;;;;;56.15;6.63;;;6.30;99.90;;;;;;4935612;28;20039;-75
2024/01/25 06:11:40;;;;;;;47.88;6.50;;;6.30;99.90;;;;;;4935635;29;20034;-77
2024/01/25 06:14:06;;;;;;;53.40;6.18;;;6.30;99.90;;;;;;4952842;28;20094;-78
2024/01/25 06:16:31;;;;;;;49.28;6.82;;;6.30;99.90;;;;;;4938524;29;20058;-77
2024/01/25 06:18:58;;;;;;;48.95;6.43;;;6.30;99.90;;;;;;4957930;28;20100;-74
2024/01/25 06:21:24;;;;;;;37.80;5.90;;;6.20;99.90;;;;;;4940262;29;20037;-74
2024/01/25 06:23:49;;;;;;;55.90;6.55;;;6.10;99.90;;;;;;4940654;29;20110;-76
2024/01/25 06:26:15;;;;;;;53.63;6.88;;;6.10;99.90;;;;;;4956258;28;20532;-78
2024/01/25 06:28:41;;;;;;;54.63;6.85;;;6.10;99.90;;;;;;4956911;28;20052;-77
2024/01/25 06:31:06;;;;;;;59.42;6.80;;;6.00;99.90;;;;;;4957187;28;20138;-74
2024/01/25 06:33:32;;;;;;;59.65;7.18;;;6.00;99.90;;;;;;4940471;29;20071;-78
2024/01/25 06:35:58;;;;;;;56.15;6.88;;;6.00;99.90;;;;;;4938467;29;20484;-78
2024/01/25 06:38:23;;;;;;;42.63;5.68;;;6.00;99.90;;;;;;4955111;28;20147;-77
2024/01/25 06:40:49;;;;;;;51.53;6.90;;;5.90;99.90;;;;;;4940171;29;20050;-76
2024/01/25 06:43:14;;;;;;;54.70;7.50;;;5.90;99.90;;;;;;4939190;29;20050;-77
2024/01/25 06:45:40;;;;;;;53.85;6.45;;;5.80;99.90;;;;;;4954376;28;20550;-76
2024/01/25 06:48:09;;;;;;;62.35;7.15;;;5.90;99.90;;;;;;4938973;29;20028;-77
2024/01/25 06:50:35;;;;;;;63.78;7.38;;;6.00;99.90;;;;;;4953272;29;20031;-75
2024/01/25 06:53:01;;;;;;;64.60;7.97;;;5.80;99.90;;;;;;4952914;28;20039;-77
2024/01/25 06:55:26;;;;;;;42.65;5.93;;;5.90;99.90;;;;;;4952639;29;20032;-75
2024/01/25 06:57:52;;;;;;;56.70;7.53;;;5.80;99.90;;;;;;4938913;29;20635;-76
2024/01/25 07:00:20;;;;;;;64.78;7.88;;;5.90;99.90;;;;;;4939073;29;20031;-76
2024/01/25 07:02:46;;;;;;;49.95;7.47;;;5.80;99.90;;;;;;4934832;29;20062;-80
2024/01/25 07:05:12;;;;;;;47.45;6.38;;;5.80;99.90;;;;;;4955117;28;20055;-77
2024/01/25 07:07:38;;;;;;;50.58;6.65;;;5.80;99.90;;;;;;4953655;28;20054;-77
2024/01/25 07:10:05;;;;;;;57.55;6.93;;;5.80;99.90;;;;;;4952135;28;20031;-77
2024/01/25 07:12:31;;;;;;;63.17;7.13;;;5.90;99.90;;;;;;4937138;29;20116;-76
2024/01/25 07:14:56;;;;;;;53.60;7.35;;;5.90;99.90;;;;;;4955575;28;20027;-78
2024/01/25 07:17:22;;;;;;;58.40;6.75;;;5.90;99.90;;;;;;4955581;28;20036;-75
2024/01/25 07:19:48;;;;;;;66.20;7.78;;;5.90;99.90;;;;;;4939577;28;20027;-75
2024/01/25 07:22:15;;;;;;;59.35;7.38;;;5.90;99.90;;;;;;4955377;28;20063;-77
2024/01/25 07:24:40;;;;;;;59.45;7.35;;;5.90;99.90;;;;;;4939489;28;20078;-75
2024/01/25 07:27:06;;;;;;;61.03;7.43;;;5.80;99.90;;;;;;4939874;29;20024;-77
2024/01/25 07:29:32;;;;;;;62.20;7.78;;;5.90;99.90;;;;;;4955873;29;20035;-79
2024/01/25 07:31:57;;;;;;;43.20;6.72;;;5.90;99.90;;;;;;4954434;28;20551;-77
2024/01/25 07:34:23;;;;;;;62.75;7.30;;;5.90;99.90;;;;;;4938062;29;20125;-76
2024/01/25 07:36:49;;;;;;;52.53;7.05;;;5.90;99.90;;;;;;4936686;29;20027;-76
2024/01/25 07:39:14;;;;;;;71.22;7.88;;;5.90;99.90;;;;;;4955841;29;20023;-75
2024/01/25 07:41:40;;;;;;;49.95;6.97;;;5.90;99.90;;;;;;4936934;29;20408;-78
2024/01/25 07:44:06;;;;;;;56.70;6.93;;;6.00;99.90;;;;;;4936776;29;20046;-78
2024/01/25 07:46:31;;;;;;;70.80;7.80;;;6.00;99.90;;;;;;4938901;29;20035;-76
2024/01/25 07:48:57;;;;;;;62.00;6.63;;;6.00;99.90;;;;;;4956502;28;20078;-78
2024/01/25 07:51:23;;;;;;;64.20;7.50;;;6.00;99.90;;;;;;4934153;28;20067;-77
2024/01/25 07:53:48;;;;;;;52.95;6.68;;;6.00;99.90;;;;;;4943440;29;20082;-77
2024/01/25 07:56:14;;;;;;;66.90;8.15;;;6.00;99.90;;;;;;4937852;29;20031;-77
2024/01/25 07:58:40;;;;;;;57.97;7.75;;;6.00;99.90;;;;;;4934124;29;20034;-74
2024/01/25 08:01:06;;;;;;;62.95;7.63;;;6.00;99.90;;;;;;4948746;28;20400;-75
2024/01/25 08:03:32;;;;;;;57.60;7.18;;;6.00;99.90;;;;;;4953449;28;20122;-76
2024/01/25 08:05:59;;;;;;;54.35;6.32;;;6.10;99.90;;;;;;4933582;29;20067;-75
2024/01/25 08:08:25;;;;;;;48.47;7.10;;;6.10;99.90;;;;;;4952706;28;20062;-76
2024/01/25 08:10:50;;;;;;;53.17;7.03;;;6.10;99.90;;;;;;4934550;29;20529;-76
2024/01/25 08:13:16;;;;;;;50.30;6.30;;;6.20;99.90;;;;;;4935746;29;20066;-77
2024/01/25 08:15:42;;;;;;;42.28;7.18;;;6.20;99.90;;;;;;4937654;29;20030;-76
2024/01/25 08:18:07;;;;;;;53.67;6.55;;;6.30;99.90;;;;;;4955482;28;20034;-76
2024/01/25 08:20:33;;;;;;;55.88;6.32;;;6.30;99.90;;;;;;4938210;29;20029;-75
2024/01/25 08:22:59;;;;;;;52.00;7.88;;;6.20;99.90;;;;;;4954267;28;20098;-75
2024/01/25 08:25:26;;;;;;;53.35;7.07;;;6.30;99.90;;;;;;4937101;28;20062;-75
2024/01/25 08:27:52;;;;;;;52.03;8.07;;;6.30;99.90;;;;;;4954113;28;20027;-75
2024/01/25 08:30:17;;;;;;;51.60;7.25;;;6.30;99.90;;;;;;4953417;28;20109;-74
2024/01/25 08:32:43;;;;;;;61.60;7.88;;;6.30;99.90;;;;;;4937345;29;20047;-76
2024/01/25 08:35:09;;;;;;;37.30;7.25;;;6.20;99.90;;;;;;4935689;29;20031;-75
2024/01/25 08:37:37;;;;;;;57.42;7.47;;;6.30;99.90;;;;;;4937396;29;20023;-79
2024/01/25 08:40:05;;;;;;;57.03;7.53;;;6.30;99.90;;;;;;4936984;29;20036;-74
2024/01/25 08:42:31;;;;;;;61.17;7.78;;;6.40;99.90;;;;;;4936083;29;20031;-76
2024/01/25 08:44:57;;;;;;;57.22;7.53;;;6.50;99.90;;;;;;4943696;28;20619;-75
2024/01/25 08:47:23;;;;;;;56.92;6.63;;;6.50;99.90;;;;;;4937765;28;20035;-76
2024/01/25 08:49:48;;;;;;;56.58;7.43;;;6.50;99.90;;;;;;4936832;29;20035;-78
2024/01/25 08:52:15;;;;;;;45.05;7.20;;;6.50;99.90;;;;;;4936565;29;20051;-76
2024/01/25 08:54:41;;;;;;;55.67;7.50;;;6.50;99.90;;;;;;4934339;29;20027;-76
2024/01/25 08:57:08;;;;;;;59.47;7.53;;;6.50;99.90;;;;;;4952130;29;20050;-77
2024/01/25 08:59:37;;;;;;;57.47;7.78;;;6.70;99.90;;;;;;4934525;28;20488;-75
2024/01/25 09:02:05;;;;;;;54.08;7.72;;;6.80;99.90;;;;;;4952282;29;20032;-74
2024/01/25 09:04:32;;;;;;;53.40;7.10;;;6.90;99.90;;;;;;4950284;28;20023;-76
2024/01/25 09:06:58;;;;;;;51.75;8.10;;;6.90;99.90;;;;;;4936399;29;20031;-76
2024/01/25 09:09:23;;;;;;;52.35;6.63;;;6.90;99.90;;;;;;4935331;29;20409;-75
2024/01/25 09:11:49;;;;;;;49.13;7.95;;;7.00;99.90;;;;;;4933152;29;20034;-74
2024/01/25 09:14:15;;;;;;;45.38;9.25;;;6.90;99.90;;;;;;4949668;28;20087;-73
2024/01/25 09:16:40;;;;;;;53.72;7.05;;;7.00;99.90;;;;;;4951704;28;20043;-78
2024/01/25 09:19:06;;;;;;;52.28;6.60;;;7.00;99.90;;;;;;4933569;28;20131;-77
2024/01/25 09:21:32;;;;;;;49.10;7.05;;;6.90;99.90;;;;;;4952279;28;20079;-78
2024/01/25 09:23:57;;;;;;;50.97;7.57;;;6.90;99.90;;;;;;4933989;29;20610;-75
2024/01/25 09:26:23;;;;;;;45.25;6.35;;;6.90;99.90;;;;;;4936129;29;20392;-76
2024/01/25 09:28:49;;;;;;;42.35;6.10;;;7.00;99.90;;;;;;4952391;28;20047;-75
2024/01/25 09:31:14;;;;;;;44.03;6.78;;;7.00;99.90;;;;;;4953218;28;20027;-74
2024/01/25 09:33:41;;;;;;;48.55;7.43;;;7.00;99.90;;;;;;4952175;29;20043;-74
2024/01/25 09:36:06;;;;;;;44.03;6.80;;;7.10;99.90;;;;;;4935320;29;20024;-75
2024/01/25 09:38:32;;;;;;;48.38;6.68;;;7.10;99.90;;;;;;4935449;28;20034;-77
2024/01/25 09:40:57;;;;;;;52.97;7.68;;;7.10;99.90;;;;;;4934244;29;20038;-79
2024/01/25 09:43:23;;;;;;;45.83;6.88;;;7.00;99.90;;;;;;4950733;28;20089;-75
2024/01/25 09:45:52;;;;;;;53.53;6.72;;;7.00;99.90;;;;;;4954018;28;20500;-75
2024/01/25 09:48:18;;;;;;;46.35;7.03;;;7.00;99.90;;;;;;4935373;29;20035;-75
2024/01/25 09:50:47;;;;;;;47.28;6.68;;;7.00;99.90;;;;;;4936615;29;20023;-74
2024/01/25 09:53:20;;;;;;;41.47;6.90;;;7.00;99.90;;;;;;4935578;28;20059;-76
2024/01/25 09:56:08;;;;;;;55.05;6.80;;;7.00;99.90;;;;;;4952780;29;20040;-74
2024/01/25 09:58:39;;;;;;;56.05;6.65;;;7.10;99.90;;;;;;4934037;29;20039;-77
2024/01/25 10:01:12;;;;;;;53.20;6.97;;;7.00;99.90;;;;;;4936081;29;20038;-75
2024/01/25 10:03:40;;;;;;;34.10;5.80;;;7.10;99.90;;;;;;4935626;29;20477;-75
2024/01/25 10:06:06;;;;;;;51.53;7.35;;;7.10;99.90;;;;;;4936561;29;20473;-75
2024/01/25 10:08:32;;;;;;;51.45;7.13;;;7.10;99.90;;;;;;4934978;29;20393;-76
2024/01/25 10:10:57;;;;;;;44.92;6.78;;;7.00;99.90;;;;;;4933806;29;20170;-75
2024/01/25 10:13:23;;;;;;;39.00;7.38;;;7.10;99.90;;;;;;4954143;28;20035;-75
2024/01/25 10:15:48;;;;;;;49.15;7.18;;;7.10;99.90;;;;;;4952598;28;20106;-76
2024/01/25 10:18:15;;;;;;;52.42;6.88;;;7.10;99.90;;;;;;4936893;28;20506;-76
2024/01/25 10:20:42;;;;;;;49.63;6.90;;;7.20;99.90;;;;;;4952611;28;20109;-76
2024/01/25 10:23:08;;;;;;;51.67;7.13;;;7.20;99.90;;;;;;4936821;28;20416;-76
2024/01/25 10:25:35;;;;;;;51.47;7.43;;;7.20;99.90;;;;;;4954399;29;20031;-76
2024/01/25 10:28:03;;;;;;;48.97;7.35;;;7.30;99.90;;;;;;4952781;28;20046;-75
2024/01/25 10:30:33;;;;;;;42.08;7.78;;;7.40;99.90;;;;;;4953566;28;20098;-74
2024/01/25 10:32:59;;;;;;;44.70;7.57;;;7.40;99.90;;;;;;4934285;29;20047;-76
2024/01/25 10:35:26;;;;;;;46.50;6.68;;;7.40;99.90;;;;;;4952856;29;20392;-75
2024/01/25 10:37:52;;;;;;;51.80;7.72;;;7.40;99.90;;;;;;4936557;28;20051;-76
2024/01/25 10:40:19;;;;;;;58.80;9.35;;;7.30;99.90;;;;;;4952536;28;20038;-76
2024/01/25 10:42:45;;;;;;;31.63;5.70;;;7.30;99.90;;;;;;4933141;29;20036;-75
2024/01/25 10:45:11;;;;;;;45.85;7.32;;;7.40;99.90;;;;;;4935698;28;20059;-75
2024/01/25 10:47:37;;;;;;;36.47;5.95;;;7.50;99.90;;;;;;4937261;29;20028;-76
2024/01/25 10:50:04;;;;;;;44.15;6.32;;;7.50;99.90;;;;;;4951318;28;20043;-77
2024/01/25 10:52:31;;;;;;;45.00;6.45;;;7.60;99.90;;;;;;4951474;28;20040;-74
2024/01/25 10:54:58;;;;;;;45.63;6.07;;;7.70;99.90;;;;;;4935167;28;20031;-75
2024/01/25 10:57:23;;;;;;;37.90;5.68;;;7.70;99.90;;;;;;4951176;29;20500;-74
2024/01/25 10:59:49;;;;;;;37.33;6.47;;;7.60;99.90;;;;;;4950798;28;20035;-75
2024/01/25 11:02:19;;;;;;;37.65;6.10;;;7.50;99.90;;;;;;4953385;28;20035;-75
2024/01/25 11:04:56;;;;;;;44.50;6.38;;;7.50;99.90;;;;;;4954351;28;20035;-75
2024/01/25 11:07:21;;;;;;;34.30;7.20;;;7.50;99.90;;;;;;4935789;28;20048;-76
2024/01/25 11:09:51;;;;;;;49.80;7.63;;;7.50;99.90;;;;;;4939864;28;20052;-75
2024/01/25 11:12:19;;;;;;;56.65;7.88;;;7.50;99.90;;;;;;4950940;28;20039;-75
2024/01/25 11:14:44;;;;;;;48.03;8.68;;;7.60;99.90;;;;;;4934546;29;20032;-75
2024/01/25 11:17:20;;;;;;;54.13;6.30;;;7.70;99.90;;;;;;4953450;28;20089;-75
2024/01/25 11:19:47;;;;;;;31.05;6.25;;;7.80;99.90;;;;;;4936023;29;20051;-75
2024/01/25 11:22:13;;;;;;;45.28;6.35;;;7.80;99.90;;;;;;4954589;29;20035;-75
2024/01/25 11:24:39;;;;;;;40.22;6.68;;;7.80;99.90;;;;;;4950949;28;20024;-75
2024/01/25 11:27:06;;;;;;;39.40;6.35;;;7.70;99.90;;;;;;4954459;28;20040;-75
2024/01/25 11:29:32;;;;;;;41.65;6.35;;;7.70;99.90;;;;;;4952340;28;20043;-74
2024/01/25 11:31:58;;;;;;;39.13;6.40;;;7.70;99.90;;;;;;4953631;28;20024;-74
2024/01/25 11:34:24;;;;;;;48.85;6.90;;;7.70;99.90;;;;;;4938738;29;20046;-77
2024/01/25 11:36:50;;;;;;;43.50;7.80;;;7.70;99.90;;;;;;4956438;28;20027;-76
2024/01/25 11:39:16;;;;;;;41.08;7.28;;;7.80;99.90;;;;;;4938917;29;20092;-75
2024/01/25 11:41:43;;;;;;;54.42;7.90;;;7.80;99.90;;;;;;4954814;28;20035;-75
2024/01/25 11:44:13;;;;;;;58.25;13.75;;;8.00;99.90;;;;;;4937978;29;20063;-78
2024/01/25 11:46:39;;;;;;;36.13;8.25;;;8.10;99.90;;;;;;4937066;28;20042;-77
2024/01/25 11:49:07;;;;;;;41.50;6.68;;;8.30;99.90;;;;;;4955382;28;20027;-77
2024/01/25 11:51:32;;;;;;;32.10;6.78;;;8.40;99.90;;;;;;4955226;28;20484;-79
2024/01/25 11:53:58;;;;;;;40.70;6.90;;;8.60;99.90;;;;;;4937842;29;20058;-78
2024/01/25 11:56:28;;;;;;;43.13;6.63;;;8.70;99.90;;;;;;4952097;28;20063;-78
2024/01/25 11:58:56;;;;;;;43.22;8.00;;;8.80;99.90;;;;;;4936230;29;20043;-78
2024/01/25 12:01:23;;;;;;;43.33;7.20;;;8.90;99.90;;;;;;4936707;29;20047;-77
2024/01/25 12:03:48;;;;;;;36.30;6.32;;;9.10;99.90;;;;;;4937066;29;20079;-75
2024/01/25 12:06:14;;;;;;;44.10;7.15;;;9.30;99.90;;;;;;4954295;28;20035;-76
2024/01/25 12:08:41;;;;;;;38.55;6.78;;;9.80;99.90;;;;;;4956142;28;20051;-78
2024/01/25 12:11:08;;;;;;;46.83;7.50;;;10.20;99.90;;;;;;4936506;29;20038;-77
2024/01/25 12:13:43;;;;;;;40.47;7.22;;;10.20;99.90;;;;;;4936838;29;20551;-77
2024/01/25 12:16:10;;;;;;;38.22;5.95;;;10.50;99.90;;;;;;4937701;29;20043;-78
2024/01/25 12:18:37;;;;;;;36.25;7.18;;;11.30;99.90;;;;;;4955388;28;20020;-78
2024/01/25 12:21:04;;;;;;;38.67;7.45;;;12.10;99.90;;;;;;4954081;28;20037;-79
2024/01/25 12:23:38;;;;;;;35.10;6.68;;;12.70;99.90;;;;;;4936616;29;20063;-79
2024/01/25 12:26:08;;;;;;;35.20;6.90;;;13.10;99.90;;;;;;4950538;29;20035;-76
2024/01/25 12:28:35;;;;;;;40.65;8.10;;;13.50;99.90;;;;;;4954476;28;20123;-79
2024/01/25 12:31:02;;;;;;;37.05;7.57;;;13.80;99.90;;;;;;4953432;28;20042;-77
2024/01/25 12:33:30;;;;;;;39.88;7.43;;;14.10;99.90;;;;;;4953067;28;20036;-77
2024/01/25 12:35:55;;;;;;;33.92;6.78;;;14.00;99.90;;;;;;4954109;28;20063;-77
2024/01/25 12:38:22;;;;;;;43.42;6.97;;;13.70;99.90;;;;;;4937517;28;20051;-77
2024/01/25 12:40:49;;;;;;;33.83;6.65;;;13.90;99.90;;;;;;4935660;29;20075;-75